createdAt,value
2019-04-06T08:48:28.343Z,11.80
2019-04-06T08:50:57.844Z,11.70
2019-04-06T08:53:27.411Z,11.70
2019-04-06T08:55:57.074Z,11.90
2019-04-06T08:58:26.423Z,12.10
2019-04-06T09:00:55.785Z,12.50
2019-04-06T09:03:25.259Z,12.80
2019-04-06T09:05:54.728Z,13.10
2019-04-06T09:08:24.053Z,13.30
2019-04-06T09:10:53.398Z,13.70
2019-04-06T09:13:22.722Z,13.90
2019-04-06T09:15:52.075Z,14.30
2019-04-06T09:18:21.577Z,14.30
2019-04-06T09:20:51.045Z,14.20
2019-04-06T09:23:20.377Z,14.10
2019-04-06T09:25:49.798Z,14.10
2019-04-06T09:28:19.495Z,14.20
2019-04-06T09:30:48.922Z,14.60
2019-04-06T09:33:18.546Z,14.40
2019-04-06T09:35:48.009Z,14.50
2019-04-06T09:38:20.576Z,14.60
2019-04-06T09:40:50.927Z,14.70
2019-04-06T09:43:20.859Z,15.00
2019-04-06T09:46:07.858Z,15.20
2019-04-06T09:49:01.483Z,15.30
2019-04-06T09:51:46.029Z,15.40
2019-04-06T09:54:40.406Z,15.60
2019-04-06T09:57:28.451Z,15.60
2019-04-06T10:00:13.135Z,16.10
2019-04-06T10:02:54.910Z,16.20
2019-04-06T10:05:43.188Z,15.90
2019-04-06T10:08:34.878Z,15.90
2019-04-06T10:11:23.163Z,16.10
2019-04-06T10:14:18.336Z,16.40
2019-04-06T10:17:10.256Z,16.70
2019-04-06T10:19:54.299Z,16.80
2019-04-06T10:22:44.431Z,17.00
2019-04-06T10:25:47.907Z,16.90
2019-04-06T10:28:25.645Z,17.20
2019-04-06T10:31:11.499Z,16.90
2019-04-06T10:33:50.851Z,16.40
2019-04-06T10:36:47.867Z,16.90
2019-04-06T10:39:37.776Z,17.20
2019-04-06T10:42:28.433Z,17.70
2019-04-06T10:45:28.466Z,17.60
2019-04-06T10:48:10.123Z,17.80
2019-04-06T10:51:16.434Z,18.10
2019-04-06T10:54:07.650Z,18.20
2019-04-06T10:57:02.464Z,18.20
2019-04-06T10:59:42.406Z,18.60
2019-04-06T11:02:30.678Z,18.20
2019-04-06T11:05:27.874Z,18.40
2019-04-06T11:08:04.962Z,18.20
2019-04-06T11:10:56.278Z,18.30
2019-04-06T11:13:44.542Z,18.30
2019-04-06T11:19:11.330Z,18.30
2019-04-06T11:22:16.947Z,18.00
2019-04-06T11:25:03.570Z,18.20
2019-04-06T11:27:51.888Z,18.20
2019-04-06T11:30:40.366Z,17.90
2019-04-06T11:33:37.715Z,18.20
2019-04-06T11:36:26.285Z,18.70
2019-04-06T11:39:13.817Z,18.80
2019-04-06T11:42:17.499Z,18.70
2019-04-06T11:45:04.300Z,18.60
2019-04-06T11:47:55.587Z,18.20
2019-04-06T11:50:49.571Z,18.20
2019-04-06T11:53:40.808Z,18.90
2019-04-06T11:56:29.307Z,19.10
2019-04-06T11:59:20.407Z,19.00
2019-04-06T12:02:08.941Z,18.90
2019-04-06T12:05:03.422Z,19.20
2019-04-06T12:08:06.946Z,19.40
2019-04-06T12:10:52.201Z,19.70
2019-04-06T12:13:43.371Z,19.70
2019-04-06T12:16:28.880Z,19.50
2019-04-06T12:19:20.300Z,19.30
2019-04-06T12:22:20.440Z,19.50
2019-04-06T12:25:07.465Z,19.40
2019-04-06T12:27:46.239Z,19.70
2019-04-06T12:30:38.596Z,20.30
2019-04-06T12:33:23.108Z,20.60
2019-04-06T12:36:17.642Z,20.80
2019-04-06T12:39:20.802Z,20.00
2019-04-06T12:42:20.735Z,20.30
2019-04-06T12:45:14.583Z,20.70
2019-04-06T12:48:01.234Z,20.30
2019-04-06T12:51:04.892Z,20.10
2019-04-06T12:54:08.110Z,19.60
2019-04-06T12:57:02.462Z,20.40
2019-04-06T12:59:56.363Z,20.80
2019-04-06T13:02:47.248Z,20.70
2019-04-06T13:05:44.554Z,20.90
2019-04-06T13:08:32.782Z,20.50
2019-04-06T13:11:13.807Z,21.20
2019-04-06T13:14:04.433Z,20.80
2019-04-06T13:16:41.926Z,20.80
2019-04-06T13:19:29.845Z,20.30
2019-04-06T13:22:16.849Z,20.80
2019-04-06T13:25:01.599Z,20.70
2019-04-06T13:27:52.471Z,20.50
2019-04-06T13:30:34.192Z,20.50
2019-04-06T13:33:20.631Z,20.20
2019-04-06T13:35:59.365Z,20.50
2019-04-06T13:38:47.382Z,20.50
2019-04-06T13:41:32.038Z,20.70
2019-04-06T13:44:09.289Z,20.20
2019-04-06T13:46:57.328Z,20.00
2019-04-06T13:49:55.150Z,20.70
2019-04-06T13:52:35.262Z,21.00
2019-04-06T13:55:22.900Z,20.60
2019-04-06T13:58:11.201Z,21.00
2019-04-06T14:00:50.818Z,20.90
2019-04-06T14:03:43.707Z,21.10
2019-04-06T14:06:41.142Z,21.20
2019-04-06T14:09:29.461Z,21.20
2019-04-06T14:12:16.703Z,20.90
2019-04-06T14:15:07.839Z,20.70
2019-04-06T14:18:01.910Z,20.70
2019-04-06T14:20:44.807Z,21.00
2019-04-06T14:23:35.641Z,20.30
2019-04-06T14:26:15.460Z,21.20
2019-04-06T14:28:57.562Z,21.30
2019-04-06T14:31:45.441Z,20.90
2019-04-06T14:34:33.707Z,20.60
2019-04-06T14:37:28.410Z,20.50
2019-04-06T14:40:12.830Z,20.00
2019-04-06T14:42:57.234Z,20.00
2019-04-06T14:45:45.517Z,19.60
2019-04-06T14:48:31.103Z,19.50
2019-04-06T14:51:16.302Z,19.20
2019-04-06T14:53:49.979Z,18.70
2019-04-06T14:56:36.731Z,18.80
2019-04-06T14:59:25.011Z,18.00
2019-04-06T15:02:04.983Z,17.90
2019-04-06T15:04:43.649Z,17.10
2019-04-06T15:07:21.602Z,16.60
2019-04-06T15:09:59.732Z,16.40
2019-04-06T15:12:54.396Z,16.50
2019-04-06T15:15:34.176Z,16.60
2019-04-06T15:18:35.260Z,16.20
2019-04-06T15:21:13.036Z,15.80
2019-04-06T15:24:03.952Z,15.70
2019-04-06T15:26:52.231Z,15.50
2019-04-06T15:29:36.406Z,15.20
2019-04-06T15:32:30.031Z,15.00
2019-04-06T15:35:24.286Z,15.00
2019-04-06T15:38:14.737Z,15.10
2019-04-06T15:40:59.542Z,14.80
2019-04-06T15:43:53.878Z,14.20
2019-04-06T15:46:56.823Z,14.10
2019-04-06T15:49:44.027Z,13.80
2019-04-06T15:52:38.350Z,13.60
2019-04-06T15:55:30.687Z,13.60
2019-04-06T15:58:08.467Z,13.40
2019-04-06T16:00:50.732Z,13.30
2019-04-06T16:03:45.239Z,13.20
2019-04-06T16:06:33.514Z,13.20
2019-04-06T16:09:33.927Z,13.10
2019-04-06T16:12:26.010Z,12.90
2019-04-06T16:15:19.412Z,12.90
2019-04-06T16:17:59.442Z,12.80
2019-04-06T16:20:41.072Z,12.70
2019-04-06T16:23:20.910Z,12.60
2019-04-06T16:26:15.339Z,12.60
2019-04-06T16:29:13.214Z,12.40
2019-04-06T16:32:11.461Z,12.30
2019-04-06T16:35:05.768Z,11.90
2019-04-06T16:37:48.074Z,11.70
2019-04-06T16:40:48.048Z,11.80
2019-04-06T16:43:48.502Z,11.60
2019-04-06T16:46:39.283Z,11.30
2019-04-06T16:49:20.154Z,11.20
2019-04-06T16:51:59.756Z,11.00
2019-04-06T16:54:37.555Z,10.90
2019-04-06T16:57:24.234Z,10.80
2019-04-06T17:00:19.856Z,10.70
2019-04-06T17:03:03.171Z,10.50
2019-04-06T17:06:00.499Z,10.40
2019-04-06T17:08:54.794Z,10.30
2019-04-06T17:11:43.118Z,10.10
2019-04-06T17:14:27.420Z,10.00
2019-04-06T17:17:23.143Z,10.00
2019-04-06T17:20:21.609Z,9.80
2019-04-06T17:23:13.222Z,9.80
2019-04-06T17:25:49.506Z,9.60
2019-04-06T17:28:28.665Z,9.70
2019-04-06T17:31:20.060Z,9.60
2019-04-06T17:34:00.689Z,9.40
2019-04-06T17:36:47.733Z,9.40
2019-04-06T17:39:42.760Z,9.30
2019-04-06T17:42:37.090Z,9.20
2019-04-06T17:45:29.104Z,9.10
2019-04-06T17:48:07.102Z,9.10
2019-04-06T17:51:05.333Z,9.00
2019-04-06T17:54:03.000Z,9.00
2019-04-06T17:56:51.686Z,8.90
2019-04-06T17:59:46.095Z,8.80
2019-04-06T18:02:45.976Z,8.80
2019-04-06T18:05:43.774Z,8.80
2019-04-06T18:08:19.186Z,8.70
2019-04-06T18:11:02.170Z,8.70
2019-04-06T18:13:42.454Z,8.60
2019-04-06T18:16:11.829Z,8.70
2019-04-06T18:18:41.243Z,8.60
2019-04-06T18:21:10.591Z,8.60
2019-04-06T18:23:40.345Z,8.40
2019-04-06T18:26:10.066Z,8.50
2019-04-06T18:28:39.695Z,8.40
2019-04-06T18:31:15.871Z,8.30
2019-04-06T18:33:45.237Z,8.50
2019-04-06T18:36:14.594Z,8.50
2019-04-06T18:38:48.227Z,8.50
2019-04-06T18:41:17.647Z,8.50
2019-04-06T18:43:57.911Z,8.50
2019-04-06T18:46:28.142Z,8.50
2019-04-06T18:48:58.574Z,8.50
2019-04-06T18:51:31.682Z,8.50
2019-04-06T18:54:02.122Z,8.30
2019-04-06T18:56:32.406Z,8.20
2019-04-06T18:59:02.882Z,8.20
2019-04-06T19:01:32.380Z,8.20
2019-04-06T19:04:02.136Z,8.10
2019-04-06T19:06:32.046Z,8.10
2019-04-06T19:09:01.932Z,8.10
2019-04-06T19:11:31.435Z,8.10
2019-04-06T19:14:01.195Z,8.00
2019-04-06T19:16:31.116Z,8.00
2019-04-06T19:19:00.535Z,7.90
2019-04-06T19:21:30.908Z,7.90
2019-04-06T19:24:00.725Z,7.90
2019-04-06T19:26:30.225Z,7.80
2019-04-06T19:28:59.599Z,7.70
2019-04-06T19:31:28.927Z,7.70
2019-04-06T19:33:58.264Z,7.70
2019-04-06T19:36:27.604Z,7.70
2019-04-06T19:38:57.821Z,7.60
2019-04-06T19:41:27.277Z,7.60
2019-04-06T19:43:56.648Z,7.60
2019-04-06T19:46:26.109Z,7.60
2019-04-06T19:48:55.434Z,7.60
2019-04-06T19:51:24.886Z,7.50
2019-04-06T19:53:54.655Z,7.40
2019-04-06T19:56:24.543Z,7.40
2019-04-06T19:58:54.753Z,7.30
2019-04-06T20:01:24.256Z,7.30
2019-04-06T20:03:53.594Z,7.30
2019-04-06T20:06:22.927Z,7.30
2019-04-06T20:08:52.849Z,7.30
2019-04-06T20:11:22.272Z,7.30
2019-04-06T20:13:51.601Z,7.20
2019-04-06T20:16:20.950Z,7.30
2019-04-06T20:18:50.343Z,7.30
2019-04-06T20:21:19.669Z,7.40
2019-04-06T20:23:49.506Z,7.20
2019-04-06T20:26:18.994Z,7.30
2019-04-06T20:28:49.519Z,7.10
2019-04-06T20:31:19.001Z,7.00
2019-04-06T20:33:51.942Z,7.00
2019-04-06T20:36:19.472Z,6.90
2019-04-06T20:38:48.874Z,6.90
2019-04-06T20:41:18.250Z,6.90
2019-04-06T20:43:48.597Z,7.00
2019-04-06T20:46:20.575Z,6.90
2019-04-06T20:48:50.179Z,6.90
2019-04-06T20:51:19.844Z,6.90
2019-04-06T20:53:49.158Z,7.00
2019-04-06T20:56:18.483Z,6.90
2019-04-06T20:58:47.803Z,6.80
2019-04-06T21:01:17.193Z,6.70
2019-04-06T21:03:57.737Z,6.60
2019-04-06T21:06:17.966Z,6.60
2019-04-06T21:08:48.017Z,6.70
2019-04-06T21:11:17.933Z,6.70
2019-04-06T21:13:47.386Z,6.70
2019-04-06T21:16:16.881Z,6.70
2019-04-06T21:18:46.944Z,6.70
2019-04-06T21:21:16.768Z,6.70
2019-04-06T21:23:46.397Z,6.60
2019-04-06T21:26:16.247Z,6.60
2019-04-06T21:28:45.602Z,6.60
2019-04-06T21:31:15.142Z,6.50
2019-04-06T21:33:46.303Z,6.50
2019-04-06T21:36:15.592Z,6.50
2019-04-06T21:38:45.546Z,6.50
2019-04-06T21:41:15.018Z,6.60
2019-04-06T21:43:44.565Z,6.50
2019-04-06T21:46:13.953Z,6.40
2019-04-06T21:48:43.279Z,6.40
2019-04-06T21:51:12.610Z,6.30
2019-04-06T21:53:42.447Z,6.20
2019-04-06T21:56:12.330Z,6.20
2019-04-06T21:58:41.743Z,6.20
2019-04-06T22:01:12.480Z,6.10
2019-04-06T22:03:41.887Z,6.00
2019-04-06T22:06:11.456Z,5.90
2019-04-06T22:08:40.885Z,5.80
2019-04-06T22:11:10.753Z,5.70
2019-04-06T22:13:40.156Z,5.60
2019-04-06T22:16:09.604Z,5.60
2019-04-06T22:18:39.459Z,5.50
2019-04-06T22:21:08.850Z,5.40
2019-04-06T22:23:42.157Z,5.30
2019-04-06T22:26:09.381Z,5.30
2019-04-06T22:28:38.843Z,5.30
2019-04-06T22:31:08.197Z,5.40
2019-04-06T22:33:38.216Z,5.30
2019-04-06T22:36:08.866Z,5.20
2019-04-06T22:38:38.687Z,5.20
2019-04-06T22:41:08.246Z,5.20
2019-04-06T22:43:37.574Z,5.20
2019-04-06T22:46:07.015Z,5.20
2019-04-06T22:48:36.418Z,5.20
2019-04-06T22:51:06.848Z,5.20
2019-04-06T22:53:36.269Z,5.20
2019-04-06T22:56:05.782Z,5.20
2019-04-06T22:58:35.725Z,5.30
2019-04-06T23:01:10.760Z,5.10
2019-04-06T23:03:58.378Z,5.20
